createdAt,value
2022-08-17T00:01:31.468Z,83.70
2022-08-17T00:04:19.218Z,83.90
2022-08-17T00:06:49.083Z,83.90
2022-08-17T00:09:18.316Z,84.20
2022-08-17T00:12:41.308Z,84.40
2022-08-17T00:14:34.975Z,84.60
2022-08-17T00:17:03.955Z,84.70
2022-08-17T00:19:32.602Z,84.80
2022-08-17T00:22:33.039Z,84.50
2022-08-17T00:24:47.570Z,84.50
2022-08-17T00:27:14.471Z,84.40
2022-08-17T00:29:42.226Z,83.90
2022-08-17T00:33:13.602Z,83.80
2022-08-17T00:34:55.744Z,83.40
2022-08-17T00:37:22.669Z,83.00
2022-08-17T00:39:49.483Z,82.80
2022-08-17T00:42:17.531Z,83.30
2022-08-17T00:44:44.749Z,83.10
2022-08-17T00:47:11.480Z,83.50
2022-08-17T00:49:38.446Z,83.50
2022-08-17T00:52:10.808Z,83.50
2022-08-17T00:54:41.937Z,84.80
2022-08-17T00:57:11.123Z,84.60
2022-08-17T00:59:39.781Z,84.80
2022-08-17T01:02:08.773Z,84.30
2022-08-17T01:04:36.167Z,84.40
2022-08-17T01:07:03.356Z,85.40
2022-08-17T01:09:31.235Z,85.40
2022-08-17T01:11:58.068Z,85.20
2022-08-17T01:14:25.856Z,85.00
2022-08-17T01:16:54.368Z,84.20
2022-08-17T01:19:23.519Z,83.60
2022-08-17T01:21:52.990Z,83.10
2022-08-17T01:24:19.862Z,83.60
2022-08-17T01:26:47.327Z,83.40
2022-08-17T01:29:16.022Z,83.10
2022-08-17T01:31:46.360Z,84.60
2022-08-17T01:34:14.557Z,84.50
2022-08-17T01:36:42.296Z,85.40
2022-08-17T01:39:11.930Z,85.80
2022-08-17T01:41:41.165Z,86.00
2022-08-17T01:44:09.851Z,86.50
2022-08-17T01:46:37.223Z,86.40
2022-08-17T01:49:08.357Z,87.40
2022-08-17T01:51:35.116Z,88.50
2022-08-17T01:54:05.269Z,88.50
2022-08-17T01:56:33.320Z,88.40
2022-08-17T01:59:00.255Z,88.20
2022-08-17T02:01:34.831Z,88.10
2022-08-17T02:04:02.109Z,88.10
2022-08-17T02:06:30.514Z,88.00
2022-08-17T02:09:02.709Z,87.80
2022-08-17T02:11:32.306Z,87.80
2022-08-17T02:14:03.242Z,87.70
2022-08-17T02:16:37.395Z,88.90
2022-08-17T02:19:09.420Z,89.20
2022-08-17T02:21:37.621Z,88.20
2022-08-17T02:24:05.881Z,88.10
2022-08-17T02:26:32.703Z,88.10
2022-08-17T02:28:59.462Z,87.90
2022-08-17T02:31:26.185Z,87.90
2022-08-17T02:34:00.403Z,88.10
2022-08-17T02:36:31.170Z,87.90
2022-08-17T02:38:58.826Z,88.10
2022-08-17T02:41:25.626Z,88.20
2022-08-17T02:43:53.233Z,88.50
2022-08-17T02:46:20.275Z,88.50
2022-08-17T02:48:47.612Z,88.60
2022-08-17T02:51:14.602Z,88.60
2022-08-17T02:53:41.449Z,88.80
2022-08-17T02:56:08.206Z,88.70
2022-08-17T02:58:36.194Z,88.90
2022-08-17T03:01:06.685Z,89.40
2022-08-17T03:03:33.958Z,89.00
2022-08-17T03:06:01.329Z,89.00
2022-08-17T03:08:28.386Z,88.70
2022-08-17T03:10:55.177Z,88.50
2022-08-17T03:13:22.433Z,88.10
2022-08-17T03:15:49.268Z,87.80
2022-08-17T03:18:19.185Z,87.70
2022-08-17T03:20:52.582Z,87.70
2022-08-17T03:23:24.224Z,87.60
2022-08-17T03:25:53.124Z,87.70
2022-08-17T03:28:21.135Z,88.10
2022-08-17T03:30:47.994Z,88.40
2022-08-17T03:33:14.849Z,88.40
2022-08-17T03:35:41.996Z,88.20
2022-08-17T03:38:10.203Z,88.60
2022-08-17T03:40:57.855Z,88.70
2022-08-17T03:43:24.383Z,88.90
2022-08-17T03:46:27.311Z,89.20
2022-08-17T03:49:14.488Z,89.50
2022-08-17T03:51:59.749Z,89.60
2022-08-17T03:54:44.782Z,90.00
2022-08-17T03:57:11.964Z,90.00
2022-08-17T03:59:38.864Z,90.20
2022-08-17T04:02:09.289Z,90.20
2022-08-17T04:04:36.626Z,90.20
2022-08-17T04:07:03.828Z,90.10
2022-08-17T04:09:30.618Z,90.00
2022-08-17T04:11:57.520Z,90.00
2022-08-17T04:14:33.677Z,90.00
2022-08-17T04:17:00.389Z,90.30
2022-08-17T04:19:27.162Z,90.40
2022-08-17T04:21:54.087Z,90.80
2022-08-17T04:24:20.878Z,91.10
2022-08-17T04:26:52.163Z,91.60
2022-08-17T04:29:21.469Z,92.00
2022-08-17T04:31:48.233Z,92.20
2022-08-17T04:34:15.207Z,92.00
2022-08-17T04:36:50.102Z,92.40
2022-08-17T04:39:17.221Z,91.90
2022-08-17T04:42:02.597Z,91.80
2022-08-17T04:44:37.629Z,91.70
2022-08-17T04:47:05.210Z,91.60
2022-08-17T04:49:33.326Z,92.10
2022-08-17T04:52:04.287Z,91.80
2022-08-17T04:54:31.846Z,91.60
2022-08-17T04:56:58.551Z,91.50
2022-08-17T04:59:25.259Z,91.40
2022-08-17T05:01:52.286Z,91.30
2022-08-17T05:04:34.522Z,91.30
2022-08-17T05:07:02.446Z,91.10
2022-08-17T05:09:29.201Z,91.00
2022-08-17T05:11:56.338Z,90.90
2022-08-17T05:14:33.650Z,90.90
2022-08-17T05:17:01.179Z,90.80
2022-08-17T05:19:28.689Z,90.60
2022-08-17T05:21:55.586Z,90.50
2022-08-17T05:24:38.639Z,90.50
2022-08-17T05:27:09.300Z,90.50
2022-08-17T05:29:37.105Z,90.70
2022-08-17T05:32:39.571Z,91.00
2022-08-17T05:35:00.775Z,91.30
2022-08-17T05:37:27.832Z,90.90
2022-08-17T05:39:54.820Z,90.90
2022-08-17T05:42:21.652Z,91.10
2022-08-17T05:44:48.616Z,91.20
2022-08-17T05:47:15.547Z,91.30
2022-08-17T05:49:42.476Z,91.20
2022-08-17T05:52:19.897Z,91.30
2022-08-17T05:55:05.748Z,91.10
2022-08-17T05:57:35.456Z,91.00
2022-08-17T06:00:07.677Z,91.00
2022-08-17T06:02:47.876Z,91.10
2022-08-17T06:05:15.206Z,91.50
2022-08-17T06:07:48.630Z,91.70
2022-08-17T06:10:18.677Z,91.50
2022-08-17T06:12:48.787Z,91.40
2022-08-17T06:15:34.165Z,91.20
2022-08-17T06:18:04.051Z,91.10
2022-08-17T06:20:36.209Z,90.90
2022-08-17T06:23:05.523Z,90.90
2022-08-17T06:25:34.858Z,90.80
2022-08-17T06:28:14.724Z,90.90
2022-08-17T06:30:59.596Z,90.90
2022-08-17T06:33:34.568Z,90.70
2022-08-17T06:36:09.508Z,90.60
2022-08-17T06:38:55.744Z,90.50
2022-08-17T06:41:37.838Z,90.40
2022-08-17T06:44:07.986Z,90.30
2022-08-17T06:46:36.775Z,90.30
2022-08-17T06:49:13.922Z,90.30
2022-08-17T06:51:40.869Z,90.30
2022-08-17T06:54:19.595Z,90.40
2022-08-17T06:56:57.313Z,90.50
2022-08-17T06:59:34.812Z,90.50
2022-08-17T07:02:29.533Z,90.20
2022-08-17T07:05:16.117Z,90.00
2022-08-17T07:08:02.884Z,90.10
2022-08-17T07:10:51.317Z,90.10
2022-08-17T07:13:18.224Z,90.00
2022-08-17T07:15:45.207Z,89.60
2022-08-17T07:18:11.969Z,89.40
2022-08-17T07:20:43.005Z,89.40
2022-08-17T07:23:09.715Z,90.00
2022-08-17T07:25:36.503Z,89.60
2022-08-17T07:28:07.034Z,89.40
2022-08-17T07:30:37.138Z,89.00
2022-08-17T07:33:15.006Z,89.50
2022-08-17T07:35:43.891Z,88.90
2022-08-17T07:38:30.293Z,88.00
2022-08-17T07:41:04.703Z,87.20
2022-08-17T07:43:35.666Z,85.80
2022-08-17T07:46:24.285Z,83.10
2022-08-17T07:48:55.060Z,82.40
2022-08-17T07:51:27.756Z,80.80
2022-08-17T07:54:09.117Z,79.20
2022-08-17T07:56:50.304Z,77.30
2022-08-17T07:59:23.439Z,76.90
2022-08-17T08:01:57.603Z,76.70
2022-08-17T08:07:17.132Z,77.50
2022-08-17T08:09:45.232Z,77.20
2022-08-17T08:12:34.248Z,78.20
2022-08-17T08:15:02.805Z,78.30
2022-08-17T08:17:35.571Z,78.10
2022-08-17T08:20:37.909Z,77.60
2022-08-17T08:23:18.688Z,76.90
2022-08-17T08:25:57.157Z,76.10
2022-08-17T08:28:33.993Z,75.70
2022-08-17T08:31:07.813Z,75.30
2022-08-17T08:33:56.270Z,74.50
2022-08-17T08:37:02.464Z,74.40
2022-08-17T08:39:10.965Z,73.20
2022-08-17T08:41:44.924Z,72.30
2022-08-17T08:44:23.879Z,71.40
2022-08-17T08:47:35.393Z,70.40
2022-08-17T08:50:04.303Z,71.00
2022-08-17T08:52:44.413Z,71.40
2022-08-17T08:55:19.128Z,69.70
2022-08-17T08:57:53.372Z,67.90
2022-08-17T09:00:22.581Z,67.10
2022-08-17T09:03:08.656Z,64.50
2022-08-17T09:05:41.582Z,63.70
2022-08-17T09:08:17.551Z,64.20
2022-08-17T09:10:57.574Z,63.90
2022-08-17T09:13:30.231Z,63.50
2022-08-17T09:16:03.186Z,63.40
2022-08-17T09:19:02.415Z,62.80
2022-08-17T09:21:52.692Z,63.70
2022-08-17T09:24:25.806Z,64.40
2022-08-17T09:27:11.187Z,65.20
2022-08-17T09:29:39.572Z,64.70
2022-08-17T09:32:18.794Z,64.50
2022-08-17T09:34:52.731Z,64.90
2022-08-17T09:37:28.623Z,65.20
2022-08-17T09:40:04.025Z,65.60
2022-08-17T09:42:32.964Z,65.40
2022-08-17T09:45:07.956Z,65.50
2022-08-17T09:47:39.602Z,64.50
2022-08-17T09:50:11.571Z,64.30
2022-08-17T09:52:38.291Z,64.20
2022-08-17T09:55:05.294Z,63.00
2022-08-17T09:57:43.954Z,63.40
2022-08-17T10:00:16.410Z,62.60
2022-08-17T10:02:58.012Z,62.70
2022-08-17T10:05:30.755Z,61.40
2022-08-17T10:08:00.319Z,61.60
2022-08-17T10:10:29.917Z,62.40
2022-08-17T10:13:10.130Z,61.40
2022-08-17T10:15:42.469Z,60.60
2022-08-17T10:18:18.552Z,61.10
2022-08-17T10:20:48.059Z,60.70
2022-08-17T10:23:36.824Z,60.50
2022-08-17T10:26:15.387Z,60.50
2022-08-17T10:28:42.325Z,60.10
2022-08-17T10:31:34.377Z,60.50
2022-08-17T10:34:06.957Z,60.20
2022-08-17T10:36:33.666Z,60.00
2022-08-17T10:39:09.626Z,59.80
2022-08-17T10:41:41.612Z,59.80
2022-08-17T10:44:39.875Z,59.00
2022-08-17T10:47:03.833Z,58.90
2022-08-17T10:49:33.998Z,58.70
2022-08-17T10:52:02.230Z,57.90
2022-08-17T10:54:58.589Z,58.50
2022-08-17T10:57:28.499Z,57.00
2022-08-17T10:59:55.918Z,56.90
2022-08-17T11:02:25.997Z,56.70
2022-08-17T11:05:11.709Z,57.30
2022-08-17T11:07:58.590Z,57.20
2022-08-17T11:10:31.488Z,57.40
2022-08-17T11:13:04.558Z,57.70
2022-08-17T11:15:51.538Z,58.30
2022-08-17T11:18:23.572Z,58.10
2022-08-17T11:21:09.519Z,57.00
2022-08-17T11:23:45.401Z,57.80
2022-08-17T11:26:26.797Z,58.80
2022-08-17T11:28:56.335Z,59.20
2022-08-17T11:31:38.732Z,59.50
2022-08-17T11:34:13.392Z,59.60
2022-08-17T11:36:46.398Z,60.50
2022-08-17T11:39:13.170Z,59.50
2022-08-17T11:41:56.589Z,59.10
2022-08-17T11:44:37.696Z,59.00
2022-08-17T11:47:22.781Z,58.90
2022-08-17T11:50:28.019Z,59.10
2022-08-17T11:52:55.135Z,59.20
2022-08-17T11:55:39.321Z,60.00
2022-08-17T11:58:25.854Z,59.90
2022-08-17T12:00:56.536Z,60.40
2022-08-17T12:03:32.278Z,60.50
2022-08-17T12:06:17.710Z,61.00
2022-08-17T12:08:47.286Z,61.00
2022-08-17T12:12:01.687Z,60.10
2022-08-17T12:14:07.332Z,60.10
2022-08-17T12:16:34.257Z,60.30
2022-08-17T12:19:02.469Z,60.20
2022-08-17T12:21:37.894Z,60.00
2022-08-17T12:24:13.328Z,59.30
2022-08-17T12:26:44.034Z,59.60
2022-08-17T12:29:18.111Z,59.70
2022-08-17T12:32:04.391Z,59.60
2022-08-17T12:34:38.408Z,59.70
2022-08-17T12:37:07.393Z,58.90
2022-08-17T12:39:34.360Z,57.90
2022-08-17T12:42:02.835Z,58.70
2022-08-17T12:44:31.737Z,59.20
2022-08-17T12:47:04.669Z,59.80
2022-08-17T12:49:36.174Z,60.00
2022-08-17T12:52:05.863Z,60.50
2022-08-17T12:54:41.358Z,59.80
2022-08-17T12:57:13.470Z,59.10
2022-08-17T12:59:41.834Z,59.40
2022-08-17T13:02:17.019Z,58.90
2022-08-17T13:04:43.874Z,60.30
2022-08-17T13:07:11.157Z,60.60
2022-08-17T13:09:40.655Z,60.60
2022-08-17T13:12:08.493Z,60.50
2022-08-17T13:14:35.479Z,60.00
2022-08-17T13:17:06.307Z,60.40
2022-08-17T13:19:48.054Z,60.20
2022-08-17T13:22:15.026Z,60.10
2022-08-17T13:24:53.220Z,60.60
2022-08-17T13:27:21.199Z,61.00
2022-08-17T13:29:57.313Z,61.80
2022-08-17T13:32:44.157Z,62.20
2022-08-17T13:35:35.396Z,63.70
2022-08-17T13:38:08.290Z,63.40
2022-08-17T13:40:46.009Z,64.00
2022-08-17T13:43:32.694Z,64.40
2022-08-17T13:46:07.731Z,64.70
2022-08-17T13:48:34.878Z,65.10
2022-08-17T13:51:04.720Z,65.60
2022-08-17T13:53:37.529Z,66.30
2022-08-17T13:56:37.408Z,65.60
2022-08-17T13:59:04.749Z,59.00
2022-08-17T14:01:34.557Z,59.10
2022-08-17T14:04:06.430Z,59.40
2022-08-17T14:06:52.264Z,59.30
2022-08-17T14:09:21.637Z,59.80
2022-08-17T14:11:49.122Z,60.60
2022-08-17T14:14:16.624Z,60.60
2022-08-17T14:16:43.553Z,60.40
2022-08-17T14:19:13.963Z,60.50
2022-08-17T14:21:42.921Z,60.80
2022-08-17T14:24:11.172Z,58.90
2022-08-17T14:26:37.930Z,56.50
2022-08-17T14:29:05.202Z,54.90
2022-08-17T14:31:41.768Z,55.20
2022-08-17T14:34:10.763Z,56.20
2022-08-17T14:36:38.639Z,57.30
2022-08-17T14:39:16.778Z,58.50
2022-08-17T14:41:43.742Z,59.80
2022-08-17T14:44:13.556Z,61.40
2022-08-17T14:46:41.375Z,63.10
2022-08-17T14:49:08.447Z,65.00
2022-08-17T14:51:43.603Z,65.60
2022-08-17T14:54:11.468Z,66.20
2022-08-17T14:57:22.294Z,66.60
2022-08-17T14:59:42.470Z,65.90
2022-08-17T15:02:10.837Z,65.00
2022-08-17T15:04:41.877Z,64.80
2022-08-17T15:07:11.883Z,64.20
2022-08-17T15:09:39.122Z,64.30
2022-08-17T15:12:06.719Z,63.90
2022-08-17T15:14:35.033Z,62.90
2022-08-17T15:17:02.597Z,62.70
2022-08-17T15:19:29.561Z,62.40
2022-08-17T15:21:56.316Z,62.30
2022-08-17T15:24:25.332Z,62.70
2022-08-17T15:26:52.067Z,62.30
2022-08-17T15:29:18.896Z,62.80
2022-08-17T15:31:45.645Z,63.00
2022-08-17T15:34:12.408Z,63.50
2022-08-17T15:36:41.411Z,64.10
2022-08-17T15:39:19.608Z,64.90
2022-08-17T15:41:47.406Z,66.30
2022-08-17T15:44:32.704Z,67.60
2022-08-17T15:47:02.138Z,68.10
2022-08-17T15:49:28.861Z,70.00
2022-08-17T15:51:55.681Z,70.70
2022-08-17T15:54:23.429Z,71.20
2022-08-17T15:56:50.841Z,72.40
2022-08-17T15:59:17.874Z,72.60
2022-08-17T16:03:13.027Z,74.40
2022-08-17T16:04:31.802Z,74.60
2022-08-17T16:06:59.687Z,75.10
2022-08-17T16:09:26.511Z,76.60
2022-08-17T16:11:55.452Z,76.60
2022-08-17T16:14:23.160Z,76.60
2022-08-17T16:16:51.304Z,77.60
2022-08-17T16:19:18.035Z,79.10
2022-08-17T16:21:44.868Z,78.30
2022-08-17T16:24:13.190Z,79.00
2022-08-17T16:26:40.404Z,78.70
2022-08-17T16:29:08.157Z,79.40
2022-08-17T16:31:36.064Z,80.00
2022-08-17T16:34:17.626Z,79.70
2022-08-17T16:36:54.749Z,79.70
2022-08-17T16:39:23.071Z,80.50
2022-08-17T16:41:50.348Z,82.00
2022-08-17T16:44:18.921Z,82.90
2022-08-17T16:46:46.361Z,83.30
2022-08-17T16:49:25.799Z,83.30
2022-08-17T16:52:01.668Z,83.40
2022-08-17T16:54:28.585Z,83.10
2022-08-17T16:56:55.352Z,83.50
2022-08-17T16:59:30.361Z,83.50
2022-08-17T17:02:04.792Z,83.90
2022-08-17T17:04:34.916Z,83.30
2022-08-17T17:07:37.781Z,82.80
2022-08-17T17:10:07.618Z,82.70
2022-08-17T17:12:59.564Z,82.60
2022-08-17T17:15:26.217Z,83.10
2022-08-17T17:17:57.608Z,83.10
2022-08-17T17:20:35.512Z,83.20
2022-08-17T17:23:28.713Z,83.30
2022-08-17T17:26:14.389Z,83.30
2022-08-17T17:28:43.606Z,83.30
2022-08-17T17:31:13.402Z,83.60
2022-08-17T17:33:42.900Z,83.60
2022-08-17T17:36:27.242Z,83.60
2022-08-17T17:39:04.329Z,83.20
2022-08-17T17:41:39.835Z,82.90
2022-08-17T17:44:10.937Z,83.20
2022-08-17T17:46:39.693Z,83.50
2022-08-17T17:49:06.717Z,83.50
2022-08-17T17:52:09.555Z,83.60
2022-08-17T17:54:32.446Z,83.70
2022-08-17T17:57:21.625Z,84.00
2022-08-17T18:00:07.066Z,84.10
2022-08-17T18:02:52.987Z,84.20
2022-08-17T18:05:32.774Z,85.10
2022-08-17T18:08:11.095Z,85.30
2022-08-17T18:10:49.969Z,85.30
2022-08-17T18:13:16.707Z,85.40
2022-08-17T18:15:51.567Z,85.50
2022-08-17T18:18:18.399Z,85.60
2022-08-17T18:20:54.082Z,86.00
2022-08-17T18:23:27.996Z,86.00
2022-08-17T18:25:55.302Z,85.90
2022-08-17T18:28:27.195Z,86.00
2022-08-17T18:31:14.452Z,86.00
2022-08-17T18:33:43.288Z,86.20
2022-08-17T18:36:11.669Z,86.50
2022-08-17T18:38:40.458Z,86.80
2022-08-17T18:41:30.476Z,87.00
2022-08-17T18:44:01.696Z,87.20
2022-08-17T18:46:31.642Z,87.40
2022-08-17T18:49:06.813Z,87.50
2022-08-17T18:51:41.935Z,87.50
2022-08-17T18:54:16.026Z,87.60
2022-08-17T18:56:44.425Z,87.80
2022-08-17T18:59:13.213Z,87.90
2022-08-17T19:01:53.724Z,88.20
2022-08-17T19:04:33.367Z,88.40
2022-08-17T19:07:07.344Z,88.90
2022-08-17T19:09:35.645Z,89.20
2022-08-17T19:12:04.652Z,89.30
2022-08-17T19:14:31.689Z,89.50
2022-08-17T19:17:05.365Z,89.50
2022-08-17T19:19:51.441Z,90.10
2022-08-17T19:22:28.485Z,89.30
2022-08-17T19:25:02.910Z,89.20
2022-08-17T19:27:41.754Z,89.40
2022-08-17T19:30:12.021Z,89.70
2022-08-17T19:32:40.043Z,89.80
2022-08-17T19:35:08.082Z,90.00
2022-08-17T19:37:41.109Z,90.00
2022-08-17T19:40:07.857Z,90.20
2022-08-17T19:42:47.355Z,90.20
2022-08-17T19:45:29.565Z,90.20
2022-08-17T19:48:13.703Z,90.60
2022-08-17T19:50:41.571Z,91.00
2022-08-17T19:54:01.485Z,90.80
2022-08-17T19:56:26.477Z,90.80
2022-08-17T19:58:53.394Z,90.90
2022-08-17T20:01:34.406Z,90.90
2022-08-17T20:04:24.441Z,91.00
2022-08-17T20:07:28.717Z,91.10
2022-08-17T20:10:15.768Z,91.10
2022-08-17T20:12:44.086Z,91.20
2022-08-17T20:15:10.869Z,91.40
2022-08-17T20:17:39.650Z,91.50
2022-08-17T20:20:25.376Z,91.60
2022-08-17T20:22:52.674Z,91.60
2022-08-17T20:25:30.084Z,91.50
2022-08-17T20:28:08.069Z,91.60
2022-08-17T20:30:37.677Z,91.60
2022-08-17T20:33:05.783Z,91.60
2022-08-17T20:35:33.938Z,91.50
2022-08-17T20:38:02.894Z,91.50
2022-08-17T20:40:35.235Z,91.40
2022-08-17T20:43:21.126Z,91.30
2022-08-17T20:45:56.132Z,91.20
2022-08-17T20:48:42.931Z,91.10
2022-08-17T20:51:27.711Z,91.10
2022-08-17T20:53:54.584Z,91.00
2022-08-17T20:56:40.189Z,91.00
2022-08-17T20:59:06.994Z,91.40
2022-08-17T21:01:40.597Z,91.70
2022-08-17T21:04:08.890Z,91.60
2022-08-17T21:07:00.705Z,91.50
2022-08-17T21:09:29.924Z,91.70
2022-08-17T21:12:04.133Z,92.20
2022-08-17T21:14:50.367Z,92.60
2022-08-17T21:17:29.710Z,92.70
2022-08-17T21:20:10.205Z,92.70
2022-08-17T21:22:42.529Z,92.80
2022-08-17T21:25:25.092Z,92.80
2022-08-17T21:28:02.258Z,92.80
2022-08-17T21:30:29.029Z,92.80
2022-08-17T21:33:14.546Z,93.20
2022-08-17T21:35:49.322Z,93.40
2022-08-17T21:38:17.713Z,93.20
2022-08-17T21:40:45.349Z,93.20
2022-08-17T21:43:29.409Z,93.10
2022-08-17T21:46:04.652Z,93.00
2022-08-17T21:48:40.030Z,93.00
2022-08-17T21:51:12.300Z,93.10
2022-08-17T21:53:42.300Z,93.00
2022-08-17T21:56:10.887Z,93.30
2022-08-17T21:58:40.292Z,93.30
2022-08-17T22:01:21.882Z,93.20
2022-08-17T22:04:00.879Z,93.10
2022-08-17T22:06:33.467Z,93.10
2022-08-17T22:09:06.846Z,92.90
2022-08-17T22:11:47.156Z,92.90
2022-08-17T22:14:18.109Z,92.90
2022-08-17T22:16:44.868Z,92.90
2022-08-17T22:19:11.655Z,93.00
2022-08-17T22:21:38.511Z,93.00
2022-08-17T22:24:07.330Z,93.10
2022-08-17T22:26:52.963Z,93.00
2022-08-17T22:29:38.225Z,93.50
2022-08-17T22:32:05.117Z,93.10
2022-08-17T22:34:31.941Z,93.00
2022-08-17T22:37:17.205Z,92.90
2022-08-17T22:39:44.589Z,92.90
2022-08-17T22:42:14.719Z,92.70
2022-08-17T22:44:48.864Z,92.70
2022-08-17T22:47:16.395Z,92.80
2022-08-17T22:49:57.986Z,92.70
2022-08-17T22:52:32.989Z,92.70
2022-08-17T22:55:19.989Z,92.70
2022-08-17T22:58:06.628Z,92.60
2022-08-17T23:00:40.256Z,92.50
2022-08-17T23:03:13.307Z,92.00
2022-08-17T23:05:43.926Z,91.70
2022-08-17T23:08:12.789Z,91.60
2022-08-17T23:10:41.602Z,91.30
2022-08-17T23:13:10.562Z,91.10
2022-08-17T23:15:39.396Z,91.10
2022-08-17T23:18:06.555Z,91.00
2022-08-17T23:20:34.618Z,91.00
2022-08-17T23:23:01.478Z,90.80
2022-08-17T23:25:29.456Z,90.80
2022-08-17T23:27:57.515Z,90.60
2022-08-17T23:30:30.941Z,91.40
2022-08-17T23:33:01.376Z,91.20
2022-08-17T23:35:39.062Z,91.00
2022-08-17T23:38:08.193Z,91.10
2022-08-17T23:40:34.992Z,91.10
2022-08-17T23:43:05.394Z,91.10
2022-08-17T23:45:36.945Z,91.20
2022-08-17T23:48:08.012Z,91.90
2022-08-17T23:50:35.691Z,92.40
2022-08-17T23:53:05.057Z,92.50
2022-08-17T23:55:34.959Z,92.50
2022-08-17T23:58:02.312Z,92.60
